createdAt,value
2022-11-06T00:05:08.379Z,5.50
2022-11-06T00:11:08.398Z,5.10
2022-11-06T00:17:08.429Z,5.20
2022-11-06T00:23:08.416Z,5.10
2022-11-06T00:29:08.425Z,5.10
2022-11-06T00:35:08.422Z,5.60
2022-11-06T00:41:08.439Z,5.10
2022-11-06T00:47:08.378Z,4.70
2022-11-06T00:53:08.406Z,4.70
2022-11-06T00:59:08.425Z,4.80
2022-11-06T01:05:08.398Z,4.80
2022-11-06T01:11:08.432Z,4.80
2022-11-06T01:17:08.417Z,4.40
2022-11-06T01:23:08.427Z,4.60
2022-11-06T01:29:08.422Z,4.80
2022-11-06T01:35:08.423Z,4.70
2022-11-06T01:41:08.425Z,5.00
2022-11-06T01:47:08.443Z,4.70
2022-11-06T01:53:08.395Z,4.70
2022-11-06T01:59:08.427Z,4.90
2022-11-06T02:05:08.401Z,4.70
2022-11-06T02:11:08.439Z,5.40
2022-11-06T02:17:08.409Z,4.50
2022-11-06T02:23:08.419Z,4.90
2022-11-06T02:29:08.438Z,5.40
2022-11-06T02:35:08.420Z,5.00
2022-11-06T02:41:08.427Z,5.10
2022-11-06T02:47:08.388Z,5.20
2022-11-06T02:53:08.418Z,6.00
2022-11-06T02:59:08.394Z,5.60
2022-11-06T03:05:08.424Z,5.80
2022-11-06T03:11:08.417Z,5.80
2022-11-06T03:17:08.472Z,6.00
2022-11-06T03:23:08.392Z,6.00
2022-11-06T03:29:08.427Z,5.60
2022-11-06T03:35:08.437Z,6.50
2022-11-06T03:41:08.455Z,6.80
2022-11-06T03:47:08.420Z,6.80
2022-11-06T03:53:08.408Z,6.70
2022-11-06T03:59:08.463Z,6.90
2022-11-06T04:05:08.426Z,7.50
2022-11-06T04:11:08.428Z,6.90
2022-11-06T04:17:08.397Z,7.50
2022-11-06T04:23:08.413Z,7.50
2022-11-06T04:29:08.417Z,7.60
2022-11-06T04:35:08.443Z,7.30
2022-11-06T04:41:08.420Z,7.30
2022-11-06T04:47:08.426Z,7.40
2022-11-06T04:53:08.444Z,7.40
2022-11-06T04:59:08.423Z,7.20
2022-11-06T05:05:08.416Z,7.00
2022-11-06T05:11:08.423Z,6.40
2022-11-06T05:17:08.397Z,7.10
2022-11-06T05:23:08.430Z,7.10
2022-11-06T05:29:08.417Z,7.10
2022-11-06T05:35:08.412Z,6.80
2022-11-06T05:41:08.415Z,7.10
2022-11-06T05:47:08.393Z,6.60
2022-11-06T05:53:08.422Z,6.40
2022-11-06T05:59:08.415Z,7.30
2022-11-06T06:05:08.409Z,6.40
2022-11-06T06:11:08.436Z,6.60
2022-11-06T06:17:08.409Z,6.30
2022-11-06T06:23:09.558Z,5.90
2022-11-06T06:29:08.446Z,6.00
2022-11-06T06:35:08.423Z,6.50
2022-11-06T06:41:08.426Z,6.10
2022-11-06T06:47:08.401Z,5.70
2022-11-06T06:53:08.388Z,5.70
2022-11-06T06:59:08.421Z,5.10
2022-11-06T07:05:08.432Z,5.10
2022-11-06T07:11:08.445Z,4.60
2022-11-06T07:17:08.410Z,4.80
2022-11-06T07:23:08.420Z,4.30
2022-11-06T07:29:08.415Z,3.90
2022-11-06T07:35:08.424Z,4.40
2022-11-06T07:41:08.444Z,3.80
2022-11-06T07:47:08.441Z,3.90
2022-11-06T07:53:08.431Z,3.30
2022-11-06T07:59:08.429Z,12.40
2022-11-06T08:05:08.426Z,25.80
2022-11-06T08:11:08.406Z,15.00
2022-11-06T08:17:08.409Z,3.50
2022-11-06T08:23:08.427Z,3.10
2022-11-06T08:29:08.408Z,3.70
2022-11-06T08:35:08.438Z,3.70
2022-11-06T08:41:08.435Z,3.30
2022-11-06T08:47:08.415Z,3.20
2022-11-06T08:53:08.553Z,4.10
2022-11-06T08:59:08.470Z,3.50
2022-11-06T09:05:08.471Z,3.50
2022-11-06T09:11:08.469Z,3.00
2022-11-06T09:17:08.750Z,2.50
2022-11-06T09:23:08.806Z,2.70
2022-11-06T09:29:08.776Z,2.50
2022-11-06T09:35:08.784Z,2.10
2022-11-06T09:41:08.785Z,2.50
2022-11-06T09:47:08.783Z,2.40
2022-11-06T09:53:08.748Z,2.40
2022-11-06T09:59:08.802Z,2.40
2022-11-06T10:05:08.801Z,2.70
2022-11-06T10:11:08.782Z,2.70
2022-11-06T10:17:08.786Z,2.60
2022-11-06T10:23:08.790Z,2.40
2022-11-06T10:29:08.801Z,2.30
2022-11-06T10:35:08.786Z,2.30
2022-11-06T10:41:08.788Z,2.20
2022-11-06T10:47:08.791Z,2.00
2022-11-06T10:53:08.792Z,2.10
2022-11-06T10:59:08.799Z,2.30
2022-11-06T11:05:08.822Z,2.00
2022-11-06T11:11:08.804Z,2.00
2022-11-06T11:17:08.804Z,1.70
2022-11-06T11:23:08.879Z,1.70
2022-11-06T11:29:08.793Z,1.60
2022-11-06T11:35:08.796Z,1.70
2022-11-06T11:41:08.800Z,1.80
2022-11-06T11:47:09.327Z,2.00
2022-11-06T11:53:10.166Z,2.10
2022-11-06T11:59:08.807Z,1.90
2022-11-06T12:05:08.809Z,2.80
2022-11-06T12:11:08.824Z,2.00
2022-11-06T12:17:08.828Z,1.80
2022-11-06T12:23:08.812Z,1.70
2022-11-06T12:29:08.809Z,1.80
2022-11-06T12:35:08.788Z,1.90
2022-11-06T12:41:08.810Z,1.80
2022-11-06T12:47:08.825Z,1.90
2022-11-06T12:53:08.831Z,1.80
2022-11-06T12:59:08.841Z,2.00
2022-11-06T13:05:08.812Z,1.90
2022-11-06T13:11:08.822Z,1.90
2022-11-06T13:17:08.829Z,1.80
2022-11-06T13:23:08.830Z,2.00
2022-11-06T13:29:08.841Z,1.90
2022-11-06T13:35:08.830Z,2.10
2022-11-06T13:47:09.272Z,2.20
2022-11-06T13:59:09.760Z,2.30
2022-11-06T14:11:10.194Z,2.30
2022-11-06T14:23:10.677Z,2.80
2022-11-06T14:35:11.090Z,2.60
2022-11-06T14:47:11.517Z,2.70
2022-11-06T14:59:12.123Z,2.70
2022-11-06T15:11:12.559Z,3.20
2022-11-06T15:23:13.148Z,3.40
2022-11-06T15:35:13.379Z,2.80
2022-11-06T15:47:13.831Z,3.00
2022-11-06T15:59:14.315Z,3.00
2022-11-06T16:11:14.684Z,4.00
2022-11-06T16:23:15.436Z,3.10
2022-11-06T16:35:15.572Z,3.50
2022-11-06T16:47:16.125Z,4.00
2022-11-06T16:59:16.500Z,3.60
2022-11-06T17:11:16.989Z,4.90
2022-11-06T17:23:17.837Z,5.80
2022-11-06T17:35:17.882Z,7.00
2022-11-06T17:47:18.343Z,9.90
2022-11-06T17:59:18.812Z,18.60
2022-11-06T18:11:19.250Z,11.40
2022-11-06T18:23:19.734Z,10.80
2022-11-06T18:35:20.154Z,11.30
2022-11-06T18:47:20.630Z,14.00
2022-11-06T18:59:21.055Z,9.30
2022-11-06T19:11:21.515Z,13.80
2022-11-06T19:23:21.950Z,14.50
2022-11-06T19:35:22.414Z,17.00
2022-11-06T19:47:22.892Z,14.60
2022-11-06T19:59:23.327Z,17.60
2022-11-06T20:11:23.767Z,15.50
2022-11-06T20:23:24.240Z,15.10
2022-11-06T20:35:24.663Z,16.50
2022-11-06T20:47:25.151Z,21.50
2022-11-06T20:59:25.581Z,16.80
2022-11-06T21:11:26.042Z,17.10
2022-11-06T21:23:26.435Z,14.90
2022-11-06T21:35:26.940Z,15.30
2022-11-06T21:47:27.405Z,15.60
2022-11-06T21:59:27.853Z,15.90
2022-11-06T22:11:28.299Z,15.40
2022-11-06T22:23:28.780Z,16.90
2022-11-06T22:35:29.218Z,18.50
2022-11-06T22:47:29.636Z,16.80
2022-11-06T22:59:30.105Z,18.20
2022-11-06T23:11:30.577Z,13.00
2022-11-06T23:23:31.044Z,14.10
2022-11-06T23:35:32.779Z,8.20
2022-11-06T23:47:31.914Z,7.10
2022-11-06T23:59:32.370Z,5.00
